sensor_id;sensor_type;location;lat;lon;timestamp;pressure;altitude;pressure_sealevel;temperature;humidity
40998;BME280;26740;45.944;12.480;2024-02-16T00:01:20;101803.88;;;2.62;100.00
40998;BME280;26740;45.944;12.480;2024-02-16T00:03:46;101804.03;;;2.61;100.00
40998;BME280;26740;45.944;12.480;2024-02-16T00:06:12;101799.13;;;2.48;100.00
40998;BME280;26740;45.944;12.480;2024-02-16T00:08:38;101797.03;;;2.58;100.00
40998;BME280;26740;45.944;12.480;2024-02-16T00:11:05;101803.13;;;2.77;100.00
40998;BME280;26740;45.944;12.480;2024-02-16T00:13:30;101797.81;;;2.75;100.00
40998;BME280;26740;45.944;12.480;2024-02-16T00:15:56;101796.28;;;2.81;100.00
40998;BME280;26740;45.944;12.480;2024-02-16T00:18:23;101793.69;;;2.79;100.00
40998;BME280;26740;45.944;12.480;2024-02-16T00:20:49;101800.38;;;2.77;100.00
40998;BME280;26740;45.944;12.480;2024-02-16T00:23:15;101792.63;;;2.89;100.00
40998;BME280;26740;45.944;12.480;2024-02-16T00:25:40;101795.78;;;2.77;100.00
40998;BME280;26740;45.944;12.480;2024-02-16T00:28:07;101792.69;;;2.72;100.00
40998;BME280;26740;45.944;12.480;2024-02-16T00:30:33;101792.03;;;2.70;100.00
40998;BME280;26740;45.944;12.480;2024-02-16T00:32:58;101788.41;;;2.70;100.00
40998;BME280;26740;45.944;12.480;2024-02-16T00:35:24;101779.34;;;2.69;100.00
40998;BME280;26740;45.944;12.480;2024-02-16T00:37:49;101772.94;;;2.77;100.00
40998;BME280;26740;45.944;12.480;2024-02-16T00:40:15;101780.34;;;2.68;100.00
40998;BME280;26740;45.944;12.480;2024-02-16T00:42:40;101784.66;;;2.71;100.00
40998;BME280;26740;45.944;12.480;2024-02-16T00:45:06;101775.03;;;2.75;100.00
40998;BME280;26740;45.944;12.480;2024-02-16T00:47:33;101778.13;;;2.72;100.00
40998;BME280;26740;45.944;12.480;2024-02-16T00:49:59;101775.75;;;2.69;100.00
40998;BME280;26740;45.944;12.480;2024-02-16T00:52:25;101779.84;;;2.64;100.00
40998;BME280;26740;45.944;12.480;2024-02-16T00:54:50;101771.31;;;2.59;100.00
40998;BME280;26740;45.944;12.480;2024-02-16T00:57:16;101783.47;;;2.65;100.00
40998;BME280;26740;45.944;12.480;2024-02-16T00:59:42;101762.53;;;2.72;100.00
40998;BME280;26740;45.944;12.480;2024-02-16T01:02:07;101764.41;;;2.72;100.00
40998;BME280;26740;45.944;12.480;2024-02-16T01:04:35;101767.63;;;2.75;100.00
40998;BME280;26740;45.944;12.480;2024-02-16T01:07:01;101767.19;;;2.63;100.00
40998;BME280;26740;45.944;12.480;2024-02-16T01:09:27;101768.19;;;2.71;100.00
40998;BME280;26740;45.944;12.480;2024-02-16T01:11:52;101772.19;;;2.60;100.00
40998;BME280;26740;45.944;12.480;2024-02-16T01:14:18;101760.56;;;2.50;100.00
40998;BME280;26740;45.944;12.480;2024-02-16T01:16:45;101767.97;;;2.41;100.00
40998;BME280;26740;45.944;12.480;2024-02-16T01:19:12;101764.19;;;2.42;100.00
40998;BME280;26740;45.944;12.480;2024-02-16T01:21:38;101765.06;;;2.34;100.00
40998;BME280;26740;45.944;12.480;2024-02-16T01:24:07;101763.00;;;2.36;100.00
40998;BME280;26740;45.944;12.480;2024-02-16T01:26:34;101773.13;;;2.27;100.00
40998;BME280;26740;45.944;12.480;2024-02-16T01:29:00;101764.75;;;2.21;100.00
40998;BME280;26740;45.944;12.480;2024-02-16T01:31:27;101764.59;;;2.14;100.00
40998;BME280;26740;45.944;12.480;2024-02-16T01:33:52;101769.53;;;2.27;100.00
40998;BME280;26740;45.944;12.480;2024-02-16T01:36:19;101762.88;;;2.21;100.00
40998;BME280;26740;45.944;12.480;2024-02-16T01:38:44;101768.34;;;2.30;100.00
40998;BME280;26740;45.944;12.480;2024-02-16T01:41:10;101767.63;;;2.36;100.00
40998;BME280;26740;45.944;12.480;2024-02-16T01:43:36;101775.16;;;2.42;100.00
40998;BME280;26740;45.944;12.480;2024-02-16T01:46:02;101768.66;;;2.35;100.00
40998;BME280;26740;45.944;12.480;2024-02-16T01:48:27;101768.97;;;2.48;100.00
40998;BME280;26740;45.944;12.480;2024-02-16T01:50:54;101769.81;;;2.49;100.00
40998;BME280;26740;45.944;12.480;2024-02-16T01:53:20;101762.41;;;2.57;100.00
40998;BME280;26740;45.944;12.480;2024-02-16T01:55:46;101765.47;;;2.62;100.00
40998;BME280;26740;45.944;12.480;2024-02-16T01:58:12;101767.63;;;2.75;100.00
40998;BME280;26740;45.944;12.480;2024-02-16T02:00:39;101761.25;;;2.91;100.00
40998;BME280;26740;45.944;12.480;2024-02-16T02:03:05;101758.50;;;2.91;100.00
40998;BME280;26740;45.944;12.480;2024-02-16T02:05:31;101753.38;;;2.88;100.00
40998;BME280;26740;45.944;12.480;2024-02-16T02:07:57;101761.94;;;2.85;100.00
40998;BME280;26740;45.944;12.480;2024-02-16T02:10:22;101754.47;;;2.79;100.00
40998;BME280;26740;45.944;12.480;2024-02-16T02:12:48;101746.16;;;2.87;100.00
40998;BME280;26740;45.944;12.480;2024-02-16T02:15:14;101749.41;;;2.91;100.00
40998;BME280;26740;45.944;12.480;2024-02-16T02:17:40;101749.22;;;2.92;100.00
40998;BME280;26740;45.944;12.480;2024-02-16T02:20:07;101743.53;;;3.02;100.00
40998;BME280;26740;45.944;12.480;2024-02-16T02:22:38;101736.97;;;3.03;100.00
40998;BME280;26740;45.944;12.480;2024-02-16T02:25:04;101734.41;;;3.01;100.00
40998;BME280;26740;45.944;12.480;2024-02-16T02:27:30;101735.41;;;3.09;100.00
40998;BME280;26740;45.944;12.480;2024-02-16T02:29:56;101732.78;;;2.92;100.00
40998;BME280;26740;45.944;12.480;2024-02-16T02:32:23;101732.25;;;2.97;100.00
40998;BME280;26740;45.944;12.480;2024-02-16T02:34:49;101736.50;;;2.99;100.00
40998;BME280;26740;45.944;12.480;2024-02-16T02:37:15;101728.41;;;3.06;100.00
40998;BME280;26740;45.944;12.480;2024-02-16T02:39:40;101721.31;;;3.12;100.00
40998;BME280;26740;45.944;12.480;2024-02-16T02:42:06;101713.41;;;3.17;100.00
40998;BME280;26740;45.944;12.480;2024-02-16T02:44:33;101720.63;;;3.18;100.00
40998;BME280;26740;45.944;12.480;2024-02-16T02:46:59;101723.38;;;2.87;100.00
40998;BME280;26740;45.944;12.480;2024-02-16T02:49:25;101727.06;;;2.71;100.00
40998;BME280;26740;45.944;12.480;2024-02-16T02:51:50;101719.47;;;2.81;100.00
40998;BME280;26740;45.944;12.480;2024-02-16T02:54:16;101719.84;;;2.70;100.00
40998;BME280;26740;45.944;12.480;2024-02-16T02:56:41;101716.13;;;2.62;100.00
40998;BME280;26740;45.944;12.480;2024-02-16T02:59:07;101719.94;;;2.53;100.00
40998;BME280;26740;45.944;12.480;2024-02-16T03:01:35;101710.69;;;2.54;100.00
40998;BME280;26740;45.944;12.480;2024-02-16T03:04:00;101714.47;;;2.53;100.00
40998;BME280;26740;45.944;12.480;2024-02-16T03:06:26;101718.19;;;2.60;100.00
40998;BME280;26740;45.944;12.480;2024-02-16T03:08:52;101709.44;;;2.65;100.00
40998;BME280;26740;45.944;12.480;2024-02-16T03:11:18;101705.44;;;2.76;100.00
40998;BME280;26740;45.944;12.480;2024-02-16T03:13:43;101701.75;;;2.92;100.00
40998;BME280;26740;45.944;12.480;2024-02-16T03:16:09;101700.38;;;2.88;100.00
40998;BME280;26740;45.944;12.480;2024-02-16T03:18:35;101692.78;;;2.98;100.00
40998;BME280;26740;45.944;12.480;2024-02-16T03:21:01;101701.56;;;2.93;100.00
40998;BME280;26740;45.944;12.480;2024-02-16T03:23:27;101686.78;;;2.94;100.00
40998;BME280;26740;45.944;12.480;2024-02-16T03:25:53;101694.91;;;2.88;100.00
40998;BME280;26740;45.944;12.480;2024-02-16T03:28:19;101701.06;;;2.90;100.00
40998;BME280;26740;45.944;12.480;2024-02-16T03:30:46;101700.38;;;2.88;100.00
40998;BME280;26740;45.944;12.480;2024-02-16T03:33:12;101701.56;;;2.93;100.00
40998;BME280;26740;45.944;12.480;2024-02-16T03:35:39;101710.00;;;2.83;100.00
40998;BME280;26740;45.944;12.480;2024-02-16T03:38:07;101710.47;;;2.95;100.00
40998;BME280;26740;45.944;12.480;2024-02-16T03:40:33;101703.41;;;3.01;100.00
40998;BME280;26740;45.944;12.480;2024-02-16T03:42:59;101705.97;;;3.02;100.00
40998;BME280;26740;45.944;12.480;2024-02-16T03:45:25;101715.59;;;2.98;100.00
40998;BME280;26740;45.944;12.480;2024-02-16T03:47:52;101728.41;;;2.75;100.00
40998;BME280;26740;45.944;12.480;2024-02-16T03:50:19;101721.78;;;2.92;100.00
40998;BME280;26740;45.944;12.480;2024-02-16T03:52:45;101723.50;;;2.93;100.00
40998;BME280;26740;45.944;12.480;2024-02-16T03:55:10;101728.94;;;3.01;100.00
40998;BME280;26740;45.944;12.480;2024-02-16T03:57:37;101716.47;;;2.91;100.00
40998;BME280;26740;45.944;12.480;2024-02-16T04:00:03;101724.56;;;2.84;100.00
40998;BME280;26740;45.944;12.480;2024-02-16T04:02:31;101731.63;;;2.78;100.00
40998;BME280;26740;45.944;12.480;2024-02-16T04:04:57;101737.47;;;2.75;100.00
40998;BME280;26740;45.944;12.480;2024-02-16T04:07:22;101724.81;;;2.74;100.00
40998;BME280;26740;45.944;12.480;2024-02-16T04:09:49;101735.44;;;2.77;100.00
40998;BME280;26740;45.944;12.480;2024-02-16T04:12:14;101735.50;;;2.61;100.00
40998;BME280;26740;45.944;12.480;2024-02-16T04:14:40;101738.66;;;2.41;100.00
40998;BME280;26740;45.944;12.480;2024-02-16T04:17:07;101747.09;;;2.32;100.00
40998;BME280;26740;45.944;12.480;2024-02-16T04:19:32;101746.91;;;2.33;100.00
40998;BME280;26740;45.944;12.480;2024-02-16T04:21:58;101741.44;;;2.25;100.00
40998;BME280;26740;45.944;12.480;2024-02-16T04:24:24;101742.31;;;2.25;100.00
40998;BME280;26740;45.944;12.480;2024-02-16T04:26:49;101740.28;;;2.19;100.00
40998;BME280;26740;45.944;12.480;2024-02-16T04:29:15;101736.69;;;2.11;100.00
40998;BME280;26740;45.944;12.480;2024-02-16T04:31:42;101745.94;;;2.09;100.00
40998;BME280;26740;45.944;12.480;2024-02-16T04:34:10;101736.03;;;2.08;100.00
40998;BME280;26740;45.944;12.480;2024-02-16T04:36:37;101739.78;;;2.07;100.00
40998;BME280;26740;45.944;12.480;2024-02-16T04:39:02;101742.69;;;2.06;100.00
40998;BME280;26740;45.944;12.480;2024-02-16T04:41:28;101733.16;;;1.85;100.00
40998;BME280;26740;45.944;12.480;2024-02-16T04:43:54;101737.94;;;1.67;100.00
40998;BME280;26740;45.944;12.480;2024-02-16T04:46:20;101730.78;;;1.49;100.00
40998;BME280;26740;45.944;12.480;2024-02-16T04:48:46;101730.94;;;1.40;100.00
40998;BME280;26740;45.944;12.480;2024-02-16T04:51:12;101729.91;;;1.24;100.00
40998;BME280;26740;45.944;12.480;2024-02-16T04:53:37;101721.38;;;1.27;100.00
40998;BME280;26740;45.944;12.480;2024-02-16T04:56:03;101727.16;;;1.24;100.00
40998;BME280;26740;45.944;12.480;2024-02-16T04:58:31;101725.63;;;1.30;100.00
40998;BME280;26740;45.944;12.480;2024-02-16T05:00:56;101729.22;;;1.30;100.00
40998;BME280;26740;45.944;12.480;2024-02-16T05:03:22;101724.28;;;1.42;100.00
40998;BME280;26740;45.944;12.480;2024-02-16T05:05:48;101736.44;;;1.40;100.00
40998;BME280;26740;45.944;12.480;2024-02-16T05:08:14;101732.16;;;1.29;100.00
40998;BME280;26740;45.944;12.480;2024-02-16T05:10:39;101729.56;;;1.19;100.00
40998;BME280;26740;45.944;12.480;2024-02-16T05:13:05;101717.06;;;1.08;100.00
40998;BME280;26740;45.944;12.480;2024-02-16T05:15:31;101713.78;;;0.97;100.00
40998;BME280;26740;45.944;12.480;2024-02-16T05:17:57;101723.34;;;0.92;100.00
40998;BME280;26740;45.944;12.480;2024-02-16T05:20:23;101719.59;;;0.93;100.00
40998;BME280;26740;45.944;12.480;2024-02-16T05:22:48;101713.44;;;0.91;100.00
40998;BME280;26740;45.944;12.480;2024-02-16T05:25:17;101720.94;;;0.89;100.00
40998;BME280;26740;45.944;12.480;2024-02-16T05:27:46;101723.19;;;0.94;100.00
40998;BME280;26740;45.944;12.480;2024-02-16T05:30:17;101725.09;;;1.02;100.00
40998;BME280;26740;45.944;12.480;2024-02-16T05:32:42;101722.00;;;1.05;100.00
40998;BME280;26740;45.944;12.480;2024-02-16T05:35:08;101722.50;;;1.00;100.00
40998;BME280;26740;45.944;12.480;2024-02-16T05:37:39;101725.06;;;0.85;100.00
40998;BME280;26740;45.944;12.480;2024-02-16T05:40:08;101727.09;;;0.83;100.00
40998;BME280;26740;45.944;12.480;2024-02-16T05:42:45;101736.47;;;0.81;100.00
40998;BME280;26740;45.944;12.480;2024-02-16T05:45:11;101728.97;;;0.74;100.00
40998;BME280;26740;45.944;12.480;2024-02-16T05:47:37;101727.19;;;0.65;100.00
40998;BME280;26740;45.944;12.480;2024-02-16T05:50:04;101731.66;;;0.66;100.00
40998;BME280;26740;45.944;12.480;2024-02-16T05:52:30;101737.47;;;0.71;100.00
40998;BME280;26740;45.944;12.480;2024-02-16T05:54:56;101733.34;;;0.59;100.00
40998;BME280;26740;45.944;12.480;2024-02-16T05:57:21;101733.28;;;0.43;100.00
40998;BME280;26740;45.944;12.480;2024-02-16T05:59:48;101736.38;;;0.48;100.00
40998;BME280;26740;45.944;12.480;2024-02-16T06:02:14;101739.06;;;0.40;100.00
40998;BME280;26740;45.944;12.480;2024-02-16T06:04:41;101733.56;;;0.31;100.00
40998;BME280;26740;45.944;12.480;2024-02-16T06:07:07;101742.63;;;0.40;100.00
40998;BME280;26740;45.944;12.480;2024-02-16T06:09:33;101738.00;;;0.32;100.00
40998;BME280;26740;45.944;12.480;2024-02-16T06:12:01;101739.00;;;0.31;100.00
40998;BME280;26740;45.944;12.480;2024-02-16T06:14:29;101739.38;;;0.36;100.00
40998;BME280;26740;45.944;12.480;2024-02-16T06:16:55;101738.22;;;0.39;100.00
40998;BME280;26740;45.944;12.480;2024-02-16T06:19:21;101744.22;;;0.43;100.00
40998;BME280;26740;45.944;12.480;2024-02-16T06:21:47;101746.78;;;0.44;100.00
40998;BME280;26740;45.944;12.480;2024-02-16T06:24:12;101745.63;;;0.55;100.00
40998;BME280;26740;45.944;12.480;2024-02-16T06:26:38;101753.09;;;0.53;100.00
40998;BME280;26740;45.944;12.480;2024-02-16T06:29:03;101760.09;;;0.47;100.00
40998;BME280;26740;45.944;12.480;2024-02-16T06:31:29;101766.91;;;0.43;100.00
40998;BME280;26740;45.944;12.480;2024-02-16T06:33:55;101766.78;;;0.53;100.00
40998;BME280;26740;45.944;12.480;2024-02-16T06:36:22;101769.44;;;0.71;100.00
40998;BME280;26740;45.944;12.480;2024-02-16T06:38:48;101767.63;;;0.96;100.00
40998;BME280;26740;45.944;12.480;2024-02-16T06:41:13;101766.63;;;0.97;100.00
40998;BME280;26740;45.944;12.480;2024-02-16T06:43:40;101777.78;;;1.28;100.00
40998;BME280;26740;45.944;12.480;2024-02-16T06:46:05;101775.59;;;1.40;100.00
40998;BME280;26740;45.944;12.480;2024-02-16T06:48:31;101782.09;;;1.47;100.00
40998;BME280;26740;45.944;12.480;2024-02-16T06:50:56;101783.13;;;1.71;100.00
40998;BME280;26740;45.944;12.480;2024-02-16T06:53:22;101778.66;;;1.62;100.00
40998;BME280;26740;45.944;12.480;2024-02-16T06:55:48;101793.38;;;1.94;100.00
40998;BME280;26740;45.944;12.480;2024-02-16T06:58:14;101790.28;;;2.30;100.00
40998;BME280;26740;45.944;12.480;2024-02-16T07:00:40;101794.63;;;2.55;100.00
40998;BME280;26740;45.944;12.480;2024-02-16T07:03:07;101796.47;;;2.71;100.00
40998;BME280;26740;45.944;12.480;2024-02-16T07:05:34;101798.03;;;2.65;100.00
40998;BME280;26740;45.944;12.480;2024-02-16T07:08:00;101801.84;;;2.96;100.00
40998;BME280;26740;45.944;12.480;2024-02-16T07:10:25;101797.50;;;3.10;100.00
40998;BME280;26740;45.944;12.480;2024-02-16T07:12:51;101809.28;;;3.18;100.00
40998;BME280;26740;45.944;12.480;2024-02-16T07:15:16;101807.09;;;3.37;100.00
40998;BME280;26740;45.944;12.480;2024-02-16T07:17:42;101808.66;;;3.39;100.00
40998;BME280;26740;45.944;12.480;2024-02-16T07:20:08;101804.91;;;4.02;100.00
40998;BME280;26740;45.944;12.480;2024-02-16T07:22:34;101810.44;;;4.16;100.00
40998;BME280;26740;45.944;12.480;2024-02-16T07:24:59;101806.38;;;4.42;100.00
40998;BME280;26740;45.944;12.480;2024-02-16T07:27:26;101810.38;;;4.69;100.00
40998;BME280;26740;45.944;12.480;2024-02-16T07:29:52;101816.25;;;4.96;100.00
40998;BME280;26740;45.944;12.480;2024-02-16T07:32:17;101808.56;;;5.43;100.00
40998;BME280;26740;45.944;12.480;2024-02-16T07:34:46;101810.34;;;5.72;100.00
40998;BME280;26740;45.944;12.480;2024-02-16T07:37:13;101822.13;;;6.59;100.00
40998;BME280;26740;45.944;12.480;2024-02-16T07:39:41;101817.63;;;7.41;100.00
40998;BME280;26740;45.944;12.480;2024-02-16T07:42:06;101810.53;;;8.00;100.00
40998;BME280;26740;45.944;12.480;2024-02-16T07:44:35;101818.16;;;8.71;100.00
40998;BME280;26740;45.944;12.480;2024-02-16T07:47:02;101808.91;;;9.04;100.00
40998;BME280;26740;45.944;12.480;2024-02-16T07:49:27;101806.97;;;9.57;100.00
40998;BME280;26740;45.944;12.480;2024-02-16T07:51:53;101807.75;;;9.96;100.00
40998;BME280;26740;45.944;12.480;2024-02-16T07:54:19;101810.88;;;10.38;100.00
40998;BME280;26740;45.944;12.480;2024-02-16T07:56:44;101809.22;;;10.74;100.00
40998;BME280;26740;45.944;12.480;2024-02-16T07:59:10;101816.00;;;11.15;100.00
40998;BME280;26740;45.944;12.480;2024-02-16T08:01:36;101821.72;;;11.38;100.00
40998;BME280;26740;45.944;12.480;2024-02-16T08:04:02;101814.13;;;11.46;100.00
40998;BME280;26740;45.944;12.480;2024-02-16T08:06:27;101820.47;;;11.34;100.00
40998;BME280;26740;45.944;12.480;2024-02-16T08:08:54;101830.47;;;11.54;100.00
40998;BME280;26740;45.944;12.480;2024-02-16T08:11:20;101823.91;;;11.79;100.00
40998;BME280;26740;45.944;12.480;2024-02-16T08:13:45;101831.06;;;12.05;100.00
40998;BME280;26740;45.944;12.480;2024-02-16T08:16:12;101833.97;;;11.80;100.00
40998;BME280;26740;45.944;12.480;2024-02-16T08:18:37;101828.66;;;12.20;100.00
40998;BME280;26740;45.944;12.480;2024-02-16T08:21:03;101831.31;;;12.15;100.00
40998;BME280;26740;45.944;12.480;2024-02-16T08:23:29;101830.63;;;12.79;100.00
40998;BME280;26740;45.944;12.480;2024-02-16T08:25:55;101833.19;;;13.44;100.00
40998;BME280;26740;45.944;12.480;2024-02-16T08:28:22;101835.63;;;13.41;100.00
40998;BME280;26740;45.944;12.480;2024-02-16T08:30:48;101829.38;;;14.08;100.00
40998;BME280;26740;45.944;12.480;2024-02-16T08:33:13;101832.63;;;14.51;93.60
40998;BME280;26740;45.944;12.480;2024-02-16T08:35:39;101835.38;;;15.24;86.86
40998;BME280;26740;45.944;12.480;2024-02-16T08:38:05;101831.00;;;14.55;84.29
40998;BME280;26740;45.944;12.480;2024-02-16T08:40:33;101833.72;;;14.50;96.61
40998;BME280;26740;45.944;12.480;2024-02-16T08:42:58;101829.84;;;14.68;95.17
40998;BME280;26740;45.944;12.480;2024-02-16T08:45:26;101829.56;;;15.08;90.39
40998;BME280;26740;45.944;12.480;2024-02-16T08:47:52;101837.84;;;15.64;83.18
40998;BME280;26740;45.944;12.480;2024-02-16T08:50:17;101831.50;;;15.25;78.68
40998;BME280;26740;45.944;12.480;2024-02-16T08:52:43;101834.19;;;15.64;84.16
40998;BME280;26740;45.944;12.480;2024-02-16T08:55:10;101830.22;;;16.41;77.22
40998;BME280;26740;45.944;12.480;2024-02-16T08:57:36;101826.00;;;16.81;69.44
40998;BME280;26740;45.944;12.480;2024-02-16T09:00:02;101832.47;;;16.12;78.11
40998;BME280;26740;45.944;12.480;2024-02-16T09:02:29;101828.66;;;16.98;64.19
40998;BME280;26740;45.944;12.480;2024-02-16T09:04:54;101830.59;;;16.55;67.73
40998;BME280;26740;45.944;12.480;2024-02-16T09:07:20;101831.88;;;17.22;62.56
40998;BME280;26740;45.944;12.480;2024-02-16T09:09:46;101835.16;;;17.77;62.64
40998;BME280;26740;45.944;12.480;2024-02-16T09:12:12;101830.84;;;17.44;61.24
40998;BME280;26740;45.944;12.480;2024-02-16T09:14:37;101830.09;;;17.69;64.20
40998;BME280;26740;45.944;12.480;2024-02-16T09:17:03;101830.47;;;18.29;62.75
40998;BME280;26740;45.944;12.480;2024-02-16T09:19:29;101830.47;;;18.91;57.88
40998;BME280;26740;45.944;12.480;2024-02-16T09:21:55;101835.78;;;19.03;58.56
40998;BME280;26740;45.944;12.480;2024-02-16T09:24:22;101832.69;;;18.79;59.60
40998;BME280;26740;45.944;12.480;2024-02-16T09:26:50;101838.94;;;18.45;60.49
40998;BME280;26740;45.944;12.480;2024-02-16T09:29:15;101835.66;;;17.54;67.39
40998;BME280;26740;45.944;12.480;2024-02-16T09:31:43;101831.59;;;18.49;60.59
40998;BME280;26740;45.944;12.480;2024-02-16T09:34:09;101828.09;;;19.29;55.96
40998;BME280;26740;45.944;12.480;2024-02-16T09:36:34;101834.44;;;18.85;57.77
40998;BME280;26740;45.944;12.480;2024-02-16T09:39:02;101834.84;;;19.33;58.46
40998;BME280;26740;45.944;12.480;2024-02-16T09:41:28;101842.75;;;19.91;51.53
40998;BME280;26740;45.944;12.480;2024-02-16T09:43:54;101839.41;;;19.84;51.80
40998;BME280;26740;45.944;12.480;2024-02-16T09:46:21;101843.88;;;19.85;50.92
40998;BME280;26740;45.944;12.480;2024-02-16T09:48:49;101841.97;;;19.70;49.10
40998;BME280;26740;45.944;12.480;2024-02-16T09:51:17;101838.34;;;19.64;50.68
40998;BME280;26740;45.944;12.480;2024-02-16T09:53:45;101842.22;;;19.84;50.94
40998;BME280;26740;45.944;12.480;2024-02-16T09:56:17;101834.16;;;18.14;59.82
40998;BME280;26740;45.944;12.480;2024-02-16T09:58:43;101838.94;;;18.34;59.48
40998;BME280;26740;45.944;12.480;2024-02-16T10:01:17;101836.66;;;18.42;58.78
40998;BME280;26740;45.944;12.480;2024-02-16T10:03:45;101830.50;;;18.60;59.92
40998;BME280;26740;45.944;12.480;2024-02-16T10:06:10;101834.03;;;19.17;55.57
40998;BME280;26740;45.944;12.480;2024-02-16T10:08:55;101832.16;;;18.61;56.29
40998;BME280;26740;45.944;12.480;2024-02-16T10:11:24;101831.31;;;17.99;60.33
40998;BME280;26740;45.944;12.480;2024-02-16T10:13:56;101830.47;;;17.93;57.98
40998;BME280;26740;45.944;12.480;2024-02-16T10:16:24;101836.66;;;18.62;55.31
40998;BME280;26740;45.944;12.480;2024-02-16T10:18:50;101831.31;;;18.55;53.67
40998;BME280;26740;45.944;12.480;2024-02-16T10:21:27;101831.78;;;19.14;51.57
40998;BME280;26740;45.944;12.480;2024-02-16T10:24:08;101832.59;;;19.30;51.59
40998;BME280;26740;45.944;12.480;2024-02-16T10:26:35;101829.78;;;19.85;51.94
40998;BME280;26740;45.944;12.480;2024-02-16T10:29:06;101827.31;;;20.18;49.23
40998;BME280;26740;45.944;12.480;2024-02-16T10:31:32;101824.50;;;20.18;47.38
40998;BME280;26740;45.944;12.480;2024-02-16T10:34:03;101818.56;;;19.75;48.79
40998;BME280;26740;45.944;12.480;2024-02-16T10:36:32;101825.66;;;18.91;51.03
40998;BME280;26740;45.944;12.480;2024-02-16T10:38:59;101810.75;;;18.81;55.91
40998;BME280;26740;45.944;12.480;2024-02-16T10:41:28;101808.81;;;18.61;53.49
40998;BME280;26740;45.944;12.480;2024-02-16T10:43:54;101808.91;;;19.91;48.78
40998;BME280;26740;45.944;12.480;2024-02-16T10:46:22;101807.34;;;19.64;50.48
40998;BME280;26740;45.944;12.480;2024-02-16T10:48:48;101808.84;;;20.01;49.11
40998;BME280;26740;45.944;12.480;2024-02-16T10:51:17;101798.84;;;19.75;48.02
40998;BME280;26740;45.944;12.480;2024-02-16T10:53:46;101804.38;;;19.95;48.65
40998;BME280;26740;45.944;12.480;2024-02-16T10:56:13;101795.22;;;20.14;47.89
40998;BME280;26740;45.944;12.480;2024-02-16T10:58:39;101795.22;;;20.14;48.41
40998;BME280;26740;45.944;12.480;2024-02-16T11:01:09;101785.09;;;19.08;51.45
40998;BME280;26740;45.944;12.480;2024-02-16T11:03:38;101787.28;;;19.76;48.94
40998;BME280;26740;45.944;12.480;2024-02-16T11:06:17;101787.75;;;19.44;51.12
40998;BME280;26740;45.944;12.480;2024-02-16T11:08:43;101779.38;;;19.23;51.80
40998;BME280;26740;45.944;12.480;2024-02-16T11:11:09;101782.94;;;19.44;51.07
40998;BME280;26740;45.944;12.480;2024-02-16T11:13:38;101779.13;;;19.14;52.13
40998;BME280;26740;45.944;12.480;2024-02-16T11:16:09;101771.41;;;19.41;50.87
40998;BME280;26740;45.944;12.480;2024-02-16T11:18:40;101773.25;;;19.11;55.52
40998;BME280;26740;45.944;12.480;2024-02-16T11:21:14;101769.53;;;19.26;54.23
40998;BME280;26740;45.944;12.480;2024-02-16T11:23:41;101765.69;;;20.01;59.12
40998;BME280;26740;45.944;12.480;2024-02-16T11:26:11;101772.91;;;20.17;51.82
40998;BME280;26740;45.944;12.480;2024-02-16T11:28:40;101771.56;;;19.65;52.36
40998;BME280;26740;45.944;12.480;2024-02-16T11:31:05;101762.19;;;19.25;53.88
40998;BME280;26740;45.944;12.480;2024-02-16T11:33:33;101761.97;;;19.16;55.18
40998;BME280;26740;45.944;12.480;2024-02-16T11:36:05;101746.84;;;18.97;57.52
40998;BME280;26740;45.944;12.480;2024-02-16T11:38:34;101740.16;;;18.67;59.90
40998;BME280;26740;45.944;12.480;2024-02-16T11:41:04;101740.91;;;19.03;54.81
40998;BME280;26740;45.944;12.480;2024-02-16T11:43:31;101740.63;;;19.05;56.26
40998;BME280;26740;45.944;12.480;2024-02-16T11:46:11;101741.59;;;19.40;61.93
40998;BME280;26740;45.944;12.480;2024-02-16T11:48:36;101742.38;;;18.80;57.91
40998;BME280;26740;45.944;12.480;2024-02-16T11:51:03;101736.75;;;18.90;59.97
40998;BME280;26740;45.944;12.480;2024-02-16T11:53:32;101740.97;;;18.77;59.53
40998;BME280;26740;45.944;12.480;2024-02-16T11:55:59;101741.59;;;18.59;58.57
40998;BME280;26740;45.944;12.480;2024-02-16T11:58:26;101737.72;;;17.88;63.75
40998;BME280;26740;45.944;12.480;2024-02-16T12:00:52;101728.72;;;18.02;63.01
40998;BME280;26740;45.944;12.480;2024-02-16T12:03:22;101727.28;;;17.84;66.90
40998;BME280;26740;45.944;12.480;2024-02-16T12:05:56;101731.50;;;17.66;63.89
40998;BME280;26740;45.944;12.480;2024-02-16T12:08:22;101720.53;;;17.69;63.78
40998;BME280;26740;45.944;12.480;2024-02-16T12:10:49;101721.53;;;17.12;74.50
40998;BME280;26740;45.944;12.480;2024-02-16T12:13:19;101718.38;;;16.93;75.53
40998;BME280;26740;45.944;12.480;2024-02-16T12:15:47;101718.13;;;16.52;79.96
40998;BME280;26740;45.944;12.480;2024-02-16T12:18:23;101711.50;;;15.28;99.74
40998;BME280;26740;45.944;12.480;2024-02-16T12:21:05;101709.28;;;16.22;95.96
40998;BME280;26740;45.944;12.480;2024-02-16T12:23:32;101704.03;;;16.36;91.23
40998;BME280;26740;45.944;12.480;2024-02-16T12:25:59;101709.38;;;15.41;100.00
40998;BME280;26740;45.944;12.480;2024-02-16T12:28:30;101706.31;;;16.44;83.00
40998;BME280;26740;45.944;12.480;2024-02-16T12:30:59;101703.59;;;16.12;94.19
40998;BME280;26740;45.944;12.480;2024-02-16T12:33:25;101701.44;;;16.72;74.94
40998;BME280;26740;45.944;12.480;2024-02-16T12:35:51;101705.47;;;16.92;78.74
40998;BME280;26740;45.944;12.480;2024-02-16T12:38:17;101704.56;;;16.81;74.89